Terminal Aerodrome Forecast
Issued by NWS

Home | Current Version | Previous Version | Text Only | Print | Product List | Glossary On
Versions: 1 2 3 4 5 6 7 8 9 10 11 12
000
FTUS42 KTAE 172340
TAFDHN
TAF
KDHN 172340Z 1800/1824 20008KT 5SM -RA OVC015
     FM180600 16006KT 1SM -RA BR OVC002
     FM181300 20008KT 2SM -RA BR OVC004
     FM181800 20005KT 3SM -RA BR OVC006=

USA.gov is the U.S. government's official web portal to all federal, state and local government web resources and services.